sensor_id;sensor_type;location;lat;lon;timestamp;P1;durP1;ratioP1;P2;durP2;ratioP2
14373;SDS011;7270;49.004;12.066;2023-03-01T00:02:17;1.40;;;1.30;;
14373;SDS011;7270;49.004;12.066;2023-03-01T00:04:43;1.40;;;1.30;;
14373;SDS011;7270;49.004;12.066;2023-03-01T00:07:11;1.50;;;1.40;;
14373;SDS011;7270;49.004;12.066;2023-03-01T00:09:37;1.40;;;1.30;;
14373;SDS011;7270;49.004;12.066;2023-03-01T00:14:35;1.40;;;1.30;;
14373;SDS011;7270;49.004;12.066;2023-03-01T00:17:01;1.20;;;1.20;;
14373;SDS011;7270;49.004;12.066;2023-03-01T00:19:27;1.40;;;1.30;;
14373;SDS011;7270;49.004;12.066;2023-03-01T00:21:54;1.30;;;1.20;;
14373;SDS011;7270;49.004;12.066;2023-03-01T00:24:21;1.27;;;1.23;;
14373;SDS011;7270;49.004;12.066;2023-03-01T00:26:48;1.27;;;1.27;;
14373;SDS011;7270;49.004;12.066;2023-03-01T00:29:14;1.50;;;1.40;;
14373;SDS011;7270;49.004;12.066;2023-03-01T00:31:41;1.40;;;1.30;;
14373;SDS011;7270;49.004;12.066;2023-03-01T00:34:07;1.50;;;1.40;;
14373;SDS011;7270;49.004;12.066;2023-03-01T00:36:34;1.50;;;1.40;;
14373;SDS011;7270;49.004;12.066;2023-03-01T00:39:01;1.40;;;1.30;;
14373;SDS011;7270;49.004;12.066;2023-03-01T00:41:29;1.40;;;1.30;;
14373;SDS011;7270;49.004;12.066;2023-03-01T00:43:55;1.40;;;1.30;;
14373;SDS011;7270;49.004;12.066;2023-03-01T00:46:22;1.40;;;1.30;;
14373;SDS011;7270;49.004;12.066;2023-03-01T00:48:49;1.20;;;1.20;;
14373;SDS011;7270;49.004;12.066;2023-03-01T00:51:16;1.40;;;1.30;;
14373;SDS011;7270;49.004;12.066;2023-03-01T00:53:43;1.40;;;1.30;;
14373;SDS011;7270;49.004;12.066;2023-03-01T00:56:10;1.50;;;1.40;;
14373;SDS011;7270;49.004;12.066;2023-03-01T00:58:39;1.40;;;1.30;;
14373;SDS011;7270;49.004;12.066;2023-03-01T01:01:08;1.43;;;1.33;;
14373;SDS011;7270;49.004;12.066;2023-03-01T01:03:41;1.40;;;1.30;;
14373;SDS011;7270;49.004;12.066;2023-03-01T01:06:12;1.40;;;1.30;;
14373;SDS011;7270;49.004;12.066;2023-03-01T01:08:38;1.40;;;1.30;;
14373;SDS011;7270;49.004;12.066;2023-03-01T01:11:05;1.40;;;1.30;;
14373;SDS011;7270;49.004;12.066;2023-03-01T01:13:31;1.40;;;1.30;;
14373;SDS011;7270;49.004;12.066;2023-03-01T01:16:01;1.40;;;1.30;;
14373;SDS011;7270;49.004;12.066;2023-03-01T01:18:27;1.40;;;1.30;;
14373;SDS011;7270;49.004;12.066;2023-03-01T01:20:54;1.40;;;1.30;;
14373;SDS011;7270;49.004;12.066;2023-03-01T01:23:20;1.40;;;1.30;;
14373;SDS011;7270;49.004;12.066;2023-03-01T01:25:46;1.40;;;1.30;;
14373;SDS011;7270;49.004;12.066;2023-03-01T01:28:12;1.50;;;1.40;;
14373;SDS011;7270;49.004;12.066;2023-03-01T01:30:39;1.20;;;1.20;;
14373;SDS011;7270;49.004;12.066;2023-03-01T01:33:06;1.40;;;1.30;;
14373;SDS011;7270;49.004;12.066;2023-03-01T01:35:33;1.43;;;1.33;;
14373;SDS011;7270;49.004;12.066;2023-03-01T01:37:59;1.40;;;1.30;;
14373;SDS011;7270;49.004;12.066;2023-03-01T01:40:25;1.33;;;1.23;;
14373;SDS011;7270;49.004;12.066;2023-03-01T01:42:52;1.40;;;1.30;;
14373;SDS011;7270;49.004;12.066;2023-03-01T01:45:26;1.30;;;1.20;;
14373;SDS011;7270;49.004;12.066;2023-03-01T01:47:53;1.40;;;1.30;;
14373;SDS011;7270;49.004;12.066;2023-03-01T01:50:22;1.40;;;1.30;;
14373;SDS011;7270;49.004;12.066;2023-03-01T01:52:49;1.40;;;1.30;;
14373;SDS011;7270;49.004;12.066;2023-03-01T01:55:18;1.40;;;1.30;;
14373;SDS011;7270;49.004;12.066;2023-03-01T01:57:47;1.40;;;1.30;;
14373;SDS011;7270;49.004;12.066;2023-03-01T02:00:16;1.50;;;1.40;;
14373;SDS011;7270;49.004;12.066;2023-03-01T02:02:43;1.40;;;1.30;;
14373;SDS011;7270;49.004;12.066;2023-03-01T02:05:11;1.50;;;1.40;;
14373;SDS011;7270;49.004;12.066;2023-03-01T02:07:41;1.50;;;1.40;;
14373;SDS011;7270;49.004;12.066;2023-03-01T02:10:09;1.30;;;1.20;;
14373;SDS011;7270;49.004;12.066;2023-03-01T02:12:35;1.40;;;1.30;;
14373;SDS011;7270;49.004;12.066;2023-03-01T02:15:02;1.37;;;1.27;;
14373;SDS011;7270;49.004;12.066;2023-03-01T02:17:28;1.47;;;1.37;;
14373;SDS011;7270;49.004;12.066;2023-03-01T02:19:59;1.40;;;1.30;;
14373;SDS011;7270;49.004;12.066;2023-03-01T02:22:32;1.60;;;1.50;;
14373;SDS011;7270;49.004;12.066;2023-03-01T02:25:03;1.43;;;1.33;;
14373;SDS011;7270;49.004;12.066;2023-03-01T02:27:36;1.20;;;1.20;;
14373;SDS011;7270;49.004;12.066;2023-03-01T02:30:07;1.40;;;1.30;;
14373;SDS011;7270;49.004;12.066;2023-03-01T02:32:38;1.33;;;1.23;;
14373;SDS011;7270;49.004;12.066;2023-03-01T02:35:06;1.50;;;1.40;;
14373;SDS011;7270;49.004;12.066;2023-03-01T02:37:33;1.50;;;1.40;;
14373;SDS011;7270;49.004;12.066;2023-03-01T02:40:03;1.40;;;1.30;;
14373;SDS011;7270;49.004;12.066;2023-03-01T02:42:30;1.40;;;1.30;;
14373;SDS011;7270;49.004;12.066;2023-03-01T02:44:57;1.40;;;1.30;;
14373;SDS011;7270;49.004;12.066;2023-03-01T02:47:25;1.40;;;1.30;;
14373;SDS011;7270;49.004;12.066;2023-03-01T02:49:51;1.50;;;1.40;;
14373;SDS011;7270;49.004;12.066;2023-03-01T02:52:29;1.40;;;1.30;;
14373;SDS011;7270;49.004;12.066;2023-03-01T02:55:00;1.40;;;1.30;;
14373;SDS011;7270;49.004;12.066;2023-03-01T02:57:27;1.40;;;1.30;;
14373;SDS011;7270;49.004;12.066;2023-03-01T02:59:54;1.40;;;1.30;;
14373;SDS011;7270;49.004;12.066;2023-03-01T03:02:21;1.43;;;1.33;;
14373;SDS011;7270;49.004;12.066;2023-03-01T03:05:02;1.40;;;1.30;;
14373;SDS011;7270;49.004;12.066;2023-03-01T03:07:31;1.40;;;1.30;;
14373;SDS011;7270;49.004;12.066;2023-03-01T03:09:57;1.23;;;1.20;;
14373;SDS011;7270;49.004;12.066;2023-03-01T03:12:23;1.40;;;1.30;;
14373;SDS011;7270;49.004;12.066;2023-03-01T03:14:50;1.40;;;1.30;;
14373;SDS011;7270;49.004;12.066;2023-03-01T03:17:16;1.50;;;1.40;;
14373;SDS011;7270;49.004;12.066;2023-03-01T03:19:42;1.40;;;1.30;;
14373;SDS011;7270;49.004;12.066;2023-03-01T03:22:11;1.50;;;1.40;;
14373;SDS011;7270;49.004;12.066;2023-03-01T03:24:38;1.50;;;1.40;;
14373;SDS011;7270;49.004;12.066;2023-03-01T03:27:05;1.40;;;1.30;;
14373;SDS011;7270;49.004;12.066;2023-03-01T03:29:31;1.50;;;1.40;;
14373;SDS011;7270;49.004;12.066;2023-03-01T03:31:57;1.40;;;1.30;;
14373;SDS011;7270;49.004;12.066;2023-03-01T03:34:24;1.30;;;1.20;;
14373;SDS011;7270;49.004;12.066;2023-03-01T03:36:52;1.40;;;1.30;;
14373;SDS011;7270;49.004;12.066;2023-03-01T03:39:23;1.40;;;1.30;;
14373;SDS011;7270;49.004;12.066;2023-03-01T03:41:51;1.50;;;1.40;;
14373;SDS011;7270;49.004;12.066;2023-03-01T03:44:17;1.40;;;1.30;;
14373;SDS011;7270;49.004;12.066;2023-03-01T03:46:43;1.40;;;1.30;;
14373;SDS011;7270;49.004;12.066;2023-03-01T03:49:09;1.40;;;1.30;;
14373;SDS011;7270;49.004;12.066;2023-03-01T03:51:36;1.37;;;1.27;;
14373;SDS011;7270;49.004;12.066;2023-03-01T03:54:10;1.40;;;1.30;;
14373;SDS011;7270;49.004;12.066;2023-03-01T03:56:38;1.33;;;1.30;;
14373;SDS011;7270;49.004;12.066;2023-03-01T03:59:04;1.50;;;1.40;;
14373;SDS011;7270;49.004;12.066;2023-03-01T04:01:31;1.40;;;1.30;;
14373;SDS011;7270;49.004;12.066;2023-03-01T04:03:57;1.40;;;1.30;;
14373;SDS011;7270;49.004;12.066;2023-03-01T04:06:29;1.37;;;1.27;;
14373;SDS011;7270;49.004;12.066;2023-03-01T04:08:55;1.40;;;1.30;;
14373;SDS011;7270;49.004;12.066;2023-03-01T04:11:23;1.40;;;1.30;;
14373;SDS011;7270;49.004;12.066;2023-03-01T04:13:54;1.40;;;1.30;;
14373;SDS011;7270;49.004;12.066;2023-03-01T04:16:21;1.60;;;1.50;;
14373;SDS011;7270;49.004;12.066;2023-03-01T04:18:48;1.53;;;1.43;;
14373;SDS011;7270;49.004;12.066;2023-03-01T04:21:20;1.37;;;1.30;;
14373;SDS011;7270;49.004;12.066;2023-03-01T04:23:46;1.57;;;1.47;;
14373;SDS011;7270;49.004;12.066;2023-03-01T04:26:17;1.60;;;1.50;;
14373;SDS011;7270;49.004;12.066;2023-03-01T04:28:46;1.50;;;1.40;;
14373;SDS011;7270;49.004;12.066;2023-03-01T04:31:16;1.47;;;1.37;;
14373;SDS011;7270;49.004;12.066;2023-03-01T04:33:43;1.50;;;1.40;;
14373;SDS011;7270;49.004;12.066;2023-03-01T04:36:10;1.50;;;1.40;;
14373;SDS011;7270;49.004;12.066;2023-03-01T04:38:37;1.40;;;1.30;;
14373;SDS011;7270;49.004;12.066;2023-03-01T04:41:05;1.50;;;1.40;;
14373;SDS011;7270;49.004;12.066;2023-03-01T04:43:31;1.50;;;1.40;;
14373;SDS011;7270;49.004;12.066;2023-03-01T04:46:02;1.50;;;1.40;;
14373;SDS011;7270;49.004;12.066;2023-03-01T04:48:30;1.50;;;1.40;;
14373;SDS011;7270;49.004;12.066;2023-03-01T04:50:57;1.50;;;1.40;;
14373;SDS011;7270;49.004;12.066;2023-03-01T04:53:24;1.47;;;1.37;;
14373;SDS011;7270;49.004;12.066;2023-03-01T04:55:50;1.50;;;1.40;;
14373;SDS011;7270;49.004;12.066;2023-03-01T04:58:16;1.40;;;1.30;;
14373;SDS011;7270;49.004;12.066;2023-03-01T05:00:43;1.50;;;1.40;;
14373;SDS011;7270;49.004;12.066;2023-03-01T05:03:09;1.50;;;1.40;;
14373;SDS011;7270;49.004;12.066;2023-03-01T05:05:37;1.50;;;1.40;;
14373;SDS011;7270;49.004;12.066;2023-03-01T05:08:04;1.50;;;1.40;;
14373;SDS011;7270;49.004;12.066;2023-03-01T05:10:31;1.40;;;1.30;;
14373;SDS011;7270;49.004;12.066;2023-03-01T05:12:58;1.50;;;1.40;;
14373;SDS011;7270;49.004;12.066;2023-03-01T05:15:25;1.40;;;1.30;;
14373;SDS011;7270;49.004;12.066;2023-03-01T05:17:51;1.40;;;1.30;;
14373;SDS011;7270;49.004;12.066;2023-03-01T05:20:19;1.50;;;1.40;;
14373;SDS011;7270;49.004;12.066;2023-03-01T05:22:49;1.50;;;1.40;;
14373;SDS011;7270;49.004;12.066;2023-03-01T05:25:15;1.50;;;1.40;;
14373;SDS011;7270;49.004;12.066;2023-03-01T05:27:42;1.50;;;1.40;;
14373;SDS011;7270;49.004;12.066;2023-03-01T05:30:09;1.50;;;1.40;;
14373;SDS011;7270;49.004;12.066;2023-03-01T05:32:40;1.60;;;1.50;;
14373;SDS011;7270;49.004;12.066;2023-03-01T05:35:06;1.50;;;1.40;;
14373;SDS011;7270;49.004;12.066;2023-03-01T05:37:33;1.60;;;1.50;;
14373;SDS011;7270;49.004;12.066;2023-03-01T05:40:02;1.40;;;1.30;;
14373;SDS011;7270;49.004;12.066;2023-03-01T05:42:30;1.40;;;1.30;;
14373;SDS011;7270;49.004;12.066;2023-03-01T05:44:57;1.60;;;1.50;;
14373;SDS011;7270;49.004;12.066;2023-03-01T05:47:24;1.60;;;1.50;;
14373;SDS011;7270;49.004;12.066;2023-03-01T05:49:50;1.50;;;1.40;;
14373;SDS011;7270;49.004;12.066;2023-03-01T05:52:16;1.50;;;1.40;;
14373;SDS011;7270;49.004;12.066;2023-03-01T05:54:43;1.40;;;1.30;;
14373;SDS011;7270;49.004;12.066;2023-03-01T05:57:10;1.50;;;1.40;;
14373;SDS011;7270;49.004;12.066;2023-03-01T05:59:37;1.47;;;1.37;;
14373;SDS011;7270;49.004;12.066;2023-03-01T06:02:03;1.50;;;1.40;;
14373;SDS011;7270;49.004;12.066;2023-03-01T06:04:29;1.50;;;1.40;;
14373;SDS011;7270;49.004;12.066;2023-03-01T06:06:57;1.50;;;1.40;;
14373;SDS011;7270;49.004;12.066;2023-03-01T06:09:24;1.50;;;1.40;;
14373;SDS011;7270;49.004;12.066;2023-03-01T06:11:50;1.40;;;1.30;;
14373;SDS011;7270;49.004;12.066;2023-03-01T06:14:18;1.60;;;1.50;;
14373;SDS011;7270;49.004;12.066;2023-03-01T06:16:45;1.50;;;1.40;;
14373;SDS011;7270;49.004;12.066;2023-03-01T06:19:14;1.53;;;1.43;;
14373;SDS011;7270;49.004;12.066;2023-03-01T06:21:40;1.40;;;1.30;;
14373;SDS011;7270;49.004;12.066;2023-03-01T06:24:07;1.50;;;1.40;;
14373;SDS011;7270;49.004;12.066;2023-03-01T06:26:33;1.60;;;1.50;;
14373;SDS011;7270;49.004;12.066;2023-03-01T06:28:59;1.60;;;1.50;;
14373;SDS011;7270;49.004;12.066;2023-03-01T06:31:27;1.50;;;1.40;;
14373;SDS011;7270;49.004;12.066;2023-03-01T06:33:53;1.50;;;1.40;;
14373;SDS011;7270;49.004;12.066;2023-03-01T06:36:20;1.60;;;1.50;;
14373;SDS011;7270;49.004;12.066;2023-03-01T06:38:46;1.50;;;1.40;;
14373;SDS011;7270;49.004;12.066;2023-03-01T06:41:13;1.60;;;1.50;;
14373;SDS011;7270;49.004;12.066;2023-03-01T06:43:39;1.50;;;1.40;;
14373;SDS011;7270;49.004;12.066;2023-03-01T06:46:05;1.53;;;1.43;;
14373;SDS011;7270;49.004;12.066;2023-03-01T06:48:34;1.50;;;1.40;;
14373;SDS011;7270;49.004;12.066;2023-03-01T06:51:00;1.60;;;1.50;;
14373;SDS011;7270;49.004;12.066;2023-03-01T06:53:27;1.40;;;1.30;;
14373;SDS011;7270;49.004;12.066;2023-03-01T06:55:54;1.40;;;1.30;;
14373;SDS011;7270;49.004;12.066;2023-03-01T06:58:20;1.40;;;1.30;;
14373;SDS011;7270;49.004;12.066;2023-03-01T07:00:47;1.60;;;1.50;;
14373;SDS011;7270;49.004;12.066;2023-03-01T07:03:13;1.60;;;1.50;;
14373;SDS011;7270;49.004;12.066;2023-03-01T07:05:40;1.60;;;1.50;;
14373;SDS011;7270;49.004;12.066;2023-03-01T07:08:07;1.50;;;1.40;;
14373;SDS011;7270;49.004;12.066;2023-03-01T07:10:33;1.60;;;1.50;;
14373;SDS011;7270;49.004;12.066;2023-03-01T07:12:59;1.53;;;1.43;;
14373;SDS011;7270;49.004;12.066;2023-03-01T07:15:26;1.60;;;1.50;;
14373;SDS011;7270;49.004;12.066;2023-03-01T07:17:52;1.50;;;1.40;;
14373;SDS011;7270;49.004;12.066;2023-03-01T07:20:19;1.50;;;1.40;;
14373;SDS011;7270;49.004;12.066;2023-03-01T07:22:48;1.30;;;1.30;;
14373;SDS011;7270;49.004;12.066;2023-03-01T07:25:15;1.50;;;1.40;;
14373;SDS011;7270;49.004;12.066;2023-03-01T07:27:41;1.40;;;1.30;;
14373;SDS011;7270;49.004;12.066;2023-03-01T07:30:08;1.50;;;1.40;;
14373;SDS011;7270;49.004;12.066;2023-03-01T07:32:35;1.50;;;1.40;;
14373;SDS011;7270;49.004;12.066;2023-03-01T07:35:01;1.50;;;1.40;;
14373;SDS011;7270;49.004;12.066;2023-03-01T07:37:27;1.50;;;1.40;;
14373;SDS011;7270;49.004;12.066;2023-03-01T07:39:55;1.50;;;1.40;;
14373;SDS011;7270;49.004;12.066;2023-03-01T07:42:22;1.40;;;1.30;;
14373;SDS011;7270;49.004;12.066;2023-03-01T07:44:48;1.50;;;1.40;;
14373;SDS011;7270;49.004;12.066;2023-03-01T07:47:15;1.60;;;1.50;;
14373;SDS011;7270;49.004;12.066;2023-03-01T07:49:41;1.60;;;1.50;;
14373;SDS011;7270;49.004;12.066;2023-03-01T07:52:09;1.60;;;1.50;;
14373;SDS011;7270;49.004;12.066;2023-03-01T07:54:35;1.40;;;1.30;;
14373;SDS011;7270;49.004;12.066;2023-03-01T07:57:03;1.50;;;1.40;;
14373;SDS011;7270;49.004;12.066;2023-03-01T07:59:29;1.60;;;1.50;;
14373;SDS011;7270;49.004;12.066;2023-03-01T08:01:56;1.40;;;1.30;;
14373;SDS011;7270;49.004;12.066;2023-03-01T08:04:22;1.50;;;1.40;;
14373;SDS011;7270;49.004;12.066;2023-03-01T08:06:49;1.50;;;1.40;;
14373;SDS011;7270;49.004;12.066;2023-03-01T08:09:16;1.60;;;1.50;;
14373;SDS011;7270;49.004;12.066;2023-03-01T08:11:45;1.60;;;1.50;;
14373;SDS011;7270;49.004;12.066;2023-03-01T08:14:13;1.60;;;1.50;;
14373;SDS011;7270;49.004;12.066;2023-03-01T08:16:39;1.50;;;1.40;;
14373;SDS011;7270;49.004;12.066;2023-03-01T08:19:06;1.60;;;1.50;;
14373;SDS011;7270;49.004;12.066;2023-03-01T08:21:32;1.50;;;1.40;;
14373;SDS011;7270;49.004;12.066;2023-03-01T08:23:59;1.50;;;1.40;;
14373;SDS011;7270;49.004;12.066;2023-03-01T08:26:26;1.50;;;1.40;;
14373;SDS011;7270;49.004;12.066;2023-03-01T08:28:52;1.60;;;1.50;;
14373;SDS011;7270;49.004;12.066;2023-03-01T08:31:20;1.50;;;1.40;;
14373;SDS011;7270;49.004;12.066;2023-03-01T08:33:47;1.40;;;1.30;;
14373;SDS011;7270;49.004;12.066;2023-03-01T08:36:16;1.70;;;1.60;;
14373;SDS011;7270;49.004;12.066;2023-03-01T08:38:42;1.60;;;1.50;;
14373;SDS011;7270;49.004;12.066;2023-03-01T08:41:09;1.40;;;1.30;;
14373;SDS011;7270;49.004;12.066;2023-03-01T08:43:35;1.70;;;1.60;;
14373;SDS011;7270;49.004;12.066;2023-03-01T08:46:01;1.60;;;1.50;;
14373;SDS011;7270;49.004;12.066;2023-03-01T08:48:29;1.50;;;1.40;;
14373;SDS011;7270;49.004;12.066;2023-03-01T08:50:55;1.50;;;1.40;;
14373;SDS011;7270;49.004;12.066;2023-03-01T08:53:22;1.40;;;1.30;;
14373;SDS011;7270;49.004;12.066;2023-03-01T08:55:48;1.40;;;1.30;;
14373;SDS011;7270;49.004;12.066;2023-03-01T08:58:14;1.50;;;1.40;;
14373;SDS011;7270;49.004;12.066;2023-03-01T09:00:41;1.50;;;1.40;;
14373;SDS011;7270;49.004;12.066;2023-03-01T09:03:07;1.50;;;1.40;;
14373;SDS011;7270;49.004;12.066;2023-03-01T09:05:35;1.40;;;1.30;;
14373;SDS011;7270;49.004;12.066;2023-03-01T09:08:01;1.33;;;1.27;;
14373;SDS011;7270;49.004;12.066;2023-03-01T09:10:28;1.40;;;1.30;;
14373;SDS011;7270;49.004;12.066;2023-03-01T09:12:54;1.30;;;1.20;;
14373;SDS011;7270;49.004;12.066;2023-03-01T09:15:20;1.20;;;1.20;;
14373;SDS011;7270;49.004;12.066;2023-03-01T09:17:47;1.10;;;1.10;;
14373;SDS011;7270;49.004;12.066;2023-03-01T09:20:13;1.10;;;1.10;;
14373;SDS011;7270;49.004;12.066;2023-03-01T09:22:41;1.10;;;1.10;;
14373;SDS011;7270;49.004;12.066;2023-03-01T09:25:07;1.10;;;1.10;;
14373;SDS011;7270;49.004;12.066;2023-03-01T09:27:34;1.00;;;1.00;;
14373;SDS011;7270;49.004;12.066;2023-03-01T09:30:01;1.00;;;1.00;;
14373;SDS011;7270;49.004;12.066;2023-03-01T09:32:28;1.00;;;1.00;;
14373;SDS011;7270;49.004;12.066;2023-03-01T09:34:55;1.10;;;1.10;;
14373;SDS011;7270;49.004;12.066;2023-03-01T09:37:36;1.00;;;1.00;;
14373;SDS011;7270;49.004;12.066;2023-03-01T09:40:06;1.10;;;1.10;;
14373;SDS011;7270;49.004;12.066;2023-03-01T09:42:33;1.00;;;1.00;;
14373;SDS011;7270;49.004;12.066;2023-03-01T09:45:01;1.10;;;1.10;;
14373;SDS011;7270;49.004;12.066;2023-03-01T09:47:31;1.10;;;1.10;;
14373;SDS011;7270;49.004;12.066;2023-03-01T09:50:00;1.10;;;1.10;;
14373;SDS011;7270;49.004;12.066;2023-03-01T09:52:29;1.20;;;1.20;;
14373;SDS011;7270;49.004;12.066;2023-03-01T09:54:56;1.10;;;1.10;;
14373;SDS011;7270;49.004;12.066;2023-03-01T09:57:28;1.10;;;1.10;;
14373;SDS011;7270;49.004;12.066;2023-03-01T10:00:01;1.03;;;1.03;;
14373;SDS011;7270;49.004;12.066;2023-03-01T10:02:30;1.00;;;1.00;;
14373;SDS011;7270;49.004;12.066;2023-03-01T10:05:05;1.10;;;1.10;;
14373;SDS011;7270;49.004;12.066;2023-03-01T10:07:37;1.10;;;1.10;;
14373;SDS011;7270;49.004;12.066;2023-03-01T10:10:07;1.20;;;1.20;;
14373;SDS011;7270;49.004;12.066;2023-03-01T10:12:37;1.10;;;1.10;;
14373;SDS011;7270;49.004;12.066;2023-03-01T10:15:04;1.10;;;1.10;;
14373;SDS011;7270;49.004;12.066;2023-03-01T10:17:33;1.10;;;1.10;;
14373;SDS011;7270;49.004;12.066;2023-03-01T10:20:10;1.13;;;1.13;;
14373;SDS011;7270;49.004;12.066;2023-03-01T10:22:39;1.10;;;1.10;;
14373;SDS011;7270;49.004;12.066;2023-03-01T10:25:05;1.00;;;1.00;;
14373;SDS011;7270;49.004;12.066;2023-03-01T10:27:34;1.00;;;1.00;;
14373;SDS011;7270;49.004;12.066;2023-03-01T10:30:09;1.10;;;1.10;;
14373;SDS011;7270;49.004;12.066;2023-03-01T10:32:39;1.10;;;1.10;;
14373;SDS011;7270;49.004;12.066;2023-03-01T10:35:15;1.10;;;1.10;;
14373;SDS011;7270;49.004;12.066;2023-03-01T10:37:46;1.10;;;1.10;;
14373;SDS011;7270;49.004;12.066;2023-03-01T10:40:22;1.10;;;1.10;;
14373;SDS011;7270;49.004;12.066;2023-03-01T10:42:48;1.00;;;1.00;;
14373;SDS011;7270;49.004;12.066;2023-03-01T10:45:31;1.10;;;1.10;;
14373;SDS011;7270;49.004;12.066;2023-03-01T10:48:05;1.10;;;1.10;;
14373;SDS011;7270;49.004;12.066;2023-03-01T10:50:32;1.20;;;1.20;;
14373;SDS011;7270;49.004;12.066;2023-03-01T10:52:59;1.00;;;1.00;;
14373;SDS011;7270;49.004;12.066;2023-03-01T10:55:28;1.10;;;1.10;;
14373;SDS011;7270;49.004;12.066;2023-03-01T10:58:06;1.00;;;1.00;;
14373;SDS011;7270;49.004;12.066;2023-03-01T11:00:34;1.00;;;1.00;;
14373;SDS011;7270;49.004;12.066;2023-03-01T11:03:11;1.00;;;1.00;;
14373;SDS011;7270;49.004;12.066;2023-03-01T11:05:50;1.10;;;1.10;;
14373;SDS011;7270;49.004;12.066;2023-03-01T11:08:27;1.00;;;1.00;;
14373;SDS011;7270;49.004;12.066;2023-03-01T11:11:00;1.00;;;1.00;;
14373;SDS011;7270;49.004;12.066;2023-03-01T11:13:29;1.00;;;1.00;;
14373;SDS011;7270;49.004;12.066;2023-03-01T11:16:00;1.10;;;1.10;;
14373;SDS011;7270;49.004;12.066;2023-03-01T11:18:28;1.10;;;1.10;;
14373;SDS011;7270;49.004;12.066;2023-03-01T11:20:55;1.20;;;1.20;;
14373;SDS011;7270;49.004;12.066;2023-03-01T11:23:22;1.10;;;1.10;;
14373;SDS011;7270;49.004;12.066;2023-03-01T11:25:51;1.10;;;1.10;;
14373;SDS011;7270;49.004;12.066;2023-03-01T11:28:18;1.10;;;1.10;;
14373;SDS011;7270;49.004;12.066;2023-03-01T11:30:47;1.10;;;1.10;;
14373;SDS011;7270;49.004;12.066;2023-03-01T11:33:18;1.00;;;1.00;;
14373;SDS011;7270;49.004;12.066;2023-03-01T11:35:47;1.10;;;1.10;;
14373;SDS011;7270;49.004;12.066;2023-03-01T11:38:17;1.00;;;1.00;;
14373;SDS011;7270;49.004;12.066;2023-03-01T11:40:45;1.20;;;1.20;;
14373;SDS011;7270;49.004;12.066;2023-03-01T11:43:15;1.00;;;1.00;;
14373;SDS011;7270;49.004;12.066;2023-03-01T11:45:47;1.10;;;1.10;;
14373;SDS011;7270;49.004;12.066;2023-03-01T11:48:31;1.00;;;1.00;;
14373;SDS011;7270;49.004;12.066;2023-03-01T11:50:59;1.10;;;1.10;;
14373;SDS011;7270;49.004;12.066;2023-03-01T11:53:34;1.10;;;1.10;;
14373;SDS011;7270;49.004;12.066;2023-03-01T11:56:07;1.10;;;1.10;;
14373;SDS011;7270;49.004;12.066;2023-03-01T11:58:43;1.20;;;1.20;;
14373;SDS011;7270;49.004;12.066;2023-03-01T12:01:14;1.00;;;1.00;;
14373;SDS011;7270;49.004;12.066;2023-03-01T12:03:50;1.10;;;1.10;;
14373;SDS011;7270;49.004;12.066;2023-03-01T12:06:27;1.10;;;1.10;;
14373;SDS011;7270;49.004;12.066;2023-03-01T12:08:59;1.10;;;1.10;;
14373;SDS011;7270;49.004;12.066;2023-03-01T12:11:29;1.10;;;1.10;;
14373;SDS011;7270;49.004;12.066;2023-03-01T12:14:09;1.10;;;1.10;;
14373;SDS011;7270;49.004;12.066;2023-03-01T12:22:07;1.10;;;1.10;;
14373;SDS011;7270;49.004;12.066;2023-03-01T12:24:44;1.13;;;1.13;;
14373;SDS011;7270;49.004;12.066;2023-03-01T12:27:17;1.00;;;1.00;;
14373;SDS011;7270;49.004;12.066;2023-03-01T12:29:49;1.07;;;1.07;;
14373;SDS011;7270;49.004;12.066;2023-03-01T12:32:29;1.07;;;1.07;;
14373;SDS011;7270;49.004;12.066;2023-03-01T12:35:20;1.20;;;1.20;;
14373;SDS011;7270;49.004;12.066;2023-03-01T12:37:55;1.00;;;1.00;;
14373;SDS011;7270;49.004;12.066;2023-03-01T12:40:32;1.00;;;1.00;;
14373;SDS011;7270;49.004;12.066;2023-03-01T12:43:03;1.10;;;1.10;;
14373;SDS011;7270;49.004;12.066;2023-03-01T12:45:34;1.10;;;1.10;;
14373;SDS011;7270;49.004;12.066;2023-03-01T12:48:09;1.03;;;1.03;;
14373;SDS011;7270;49.004;12.066;2023-03-01T12:50:39;1.00;;;1.00;;
14373;SDS011;7270;49.004;12.066;2023-03-01T12:53:21;1.10;;;1.10;;
14373;SDS011;7270;49.004;12.066;2023-03-01T12:55:48;1.00;;;1.00;;
14373;SDS011;7270;49.004;12.066;2023-03-01T12:58:17;1.10;;;1.10;;
14373;SDS011;7270;49.004;12.066;2023-03-01T13:00:51;1.10;;;1.10;;
14373;SDS011;7270;49.004;12.066;2023-03-01T13:03:20;1.00;;;1.00;;
14373;SDS011;7270;49.004;12.066;2023-03-01T13:05:55;1.10;;;1.10;;
14373;SDS011;7270;49.004;12.066;2023-03-01T13:08:26;1.00;;;1.00;;
14373;SDS011;7270;49.004;12.066;2023-03-01T13:10:55;1.00;;;1.00;;
14373;SDS011;7270;49.004;12.066;2023-03-01T13:13:23;1.20;;;1.20;;
14373;SDS011;7270;49.004;12.066;2023-03-01T13:15:51;1.10;;;1.10;;
14373;SDS011;7270;49.004;12.066;2023-03-01T13:18:30;1.10;;;1.10;;
14373;SDS011;7270;49.004;12.066;2023-03-01T13:20:58;1.20;;;1.20;;
14373;SDS011;7270;49.004;12.066;2023-03-01T13:23:26;1.10;;;1.10;;
14373;SDS011;7270;49.004;12.066;2023-03-01T13:28:47;1.10;;;1.10;;
14373;SDS011;7270;49.004;12.066;2023-03-01T13:33:55;1.10;;;1.10;;
14373;SDS011;7270;49.004;12.066;2023-03-01T13:41:51;1.10;;;1.10;;
14373;SDS011;7270;49.004;12.066;2023-03-01T13:44:20;1.10;;;1.10;;
14373;SDS011;7270;49.004;12.066;2023-03-01T13:46:47;1.10;;;1.10;;
14373;SDS011;7270;49.004;12.066;2023-03-01T13:49:14;1.10;;;1.10;;
14373;SDS011;7270;49.004;12.066;2023-03-01T13:51:42;1.00;;;1.00;;
14373;SDS011;7270;49.004;12.066;2023-03-01T13:54:12;1.10;;;1.10;;
14373;SDS011;7270;49.004;12.066;2023-03-01T13:56:40;1.20;;;1.20;;
14373;SDS011;7270;49.004;12.066;2023-03-01T13:59:12;1.10;;;1.10;;
14373;SDS011;7270;49.004;12.066;2023-03-01T14:01:38;1.10;;;1.10;;
14373;SDS011;7270;49.004;12.066;2023-03-01T14:04:18;1.20;;;1.20;;
14373;SDS011;7270;49.004;12.066;2023-03-01T14:06:45;1.10;;;1.10;;
14373;SDS011;7270;49.004;12.066;2023-03-01T14:09:14;1.20;;;1.20;;
14373;SDS011;7270;49.004;12.066;2023-03-01T14:14:36;1.10;;;1.10;;
14373;SDS011;7270;49.004;12.066;2023-03-01T14:17:12;1.10;;;1.10;;
14373;SDS011;7270;49.004;12.066;2023-03-01T14:19:43;1.10;;;1.10;;
14373;SDS011;7270;49.004;12.066;2023-03-01T14:22:13;1.07;;;1.07;;
14373;SDS011;7270;49.004;12.066;2023-03-01T14:24:44;1.10;;;1.10;;
14373;SDS011;7270;49.004;12.066;2023-03-01T14:27:12;1.20;;;1.20;;
14373;SDS011;7270;49.004;12.066;2023-03-01T14:29:41;1.10;;;1.10;;
14373;SDS011;7270;49.004;12.066;2023-03-01T14:32:11;1.10;;;1.10;;
14373;SDS011;7270;49.004;12.066;2023-03-01T14:34:42;1.10;;;1.10;;
14373;SDS011;7270;49.004;12.066;2023-03-01T14:37:16;1.20;;;1.20;;
14373;SDS011;7270;49.004;12.066;2023-03-01T14:39:44;1.20;;;1.20;;
14373;SDS011;7270;49.004;12.066;2023-03-01T14:42:11;1.20;;;1.20;;
14373;SDS011;7270;49.004;12.066;2023-03-01T14:44:38;1.10;;;1.10;;
14373;SDS011;7270;49.004;12.066;2023-03-01T14:47:10;1.10;;;1.10;;
14373;SDS011;7270;49.004;12.066;2023-03-01T14:49:38;1.20;;;1.20;;
14373;SDS011;7270;49.004;12.066;2023-03-01T14:52:06;1.20;;;1.20;;
14373;SDS011;7270;49.004;12.066;2023-03-01T14:54:35;1.10;;;1.10;;
14373;SDS011;7270;49.004;12.066;2023-03-01T14:57:03;1.30;;;1.20;;
14373;SDS011;7270;49.004;12.066;2023-03-01T14:59:29;1.10;;;1.10;;
14373;SDS011;7270;49.004;12.066;2023-03-01T15:01:56;1.10;;;1.10;;
14373;SDS011;7270;49.004;12.066;2023-03-01T15:04:25;1.10;;;1.10;;
14373;SDS011;7270;49.004;12.066;2023-03-01T15:06:52;1.10;;;1.10;;
14373;SDS011;7270;49.004;12.066;2023-03-01T15:09:18;1.10;;;1.10;;
14373;SDS011;7270;49.004;12.066;2023-03-01T15:11:45;1.20;;;1.20;;
14373;SDS011;7270;49.004;12.066;2023-03-01T15:14:38;1.20;;;1.20;;
14373;SDS011;7270;49.004;12.066;2023-03-01T15:17:14;1.10;;;1.10;;
14373;SDS011;7270;49.004;12.066;2023-03-01T15:19:44;1.40;;;1.30;;